createdAt,value
2023-02-11T00:03:19.532Z,89.87
2023-02-11T00:08:20.957Z,89.99
2023-02-11T00:13:23.998Z,90.18
2023-02-11T00:18:25.439Z,90.37
2023-02-11T00:23:26.895Z,90.56
2023-02-11T00:28:28.379Z,90.22
2023-02-11T00:33:29.842Z,90.06
2023-02-11T00:38:31.283Z,89.80
2023-02-11T00:43:32.778Z,90.30
2023-02-11T00:48:34.403Z,90.17
2023-02-11T00:53:36.477Z,90.26
2023-02-11T00:58:38.041Z,89.72
2023-02-11T01:03:40.753Z,89.72
2023-02-11T01:08:42.166Z,90.42
2023-02-11T01:13:43.727Z,89.97
2023-02-11T01:18:45.823Z,89.96
2023-02-11T01:23:47.374Z,89.64
2023-02-11T01:28:48.792Z,89.55
2023-02-11T01:33:50.258Z,89.81
2023-02-11T01:38:51.690Z,89.45
2023-02-11T01:43:55.055Z,89.93
2023-02-11T01:49:03.458Z,90.54
2023-02-11T01:54:27.889Z,89.69
2023-02-11T01:59:39.030Z,90.34
2023-02-11T02:04:53.599Z,90.14
2023-02-11T02:10:01.686Z,90.48
2023-02-11T02:15:32.637Z,90.03
2023-02-11T02:20:58.950Z,90.50
2023-02-11T02:26:11.898Z,90.64
2023-02-11T02:31:36.606Z,90.02
2023-02-11T02:36:54.170Z,90.10
2023-02-11T02:41:56.936Z,90.39
2023-02-11T02:46:58.427Z,91.10
2023-02-11T02:52:18.090Z,89.64
2023-02-11T02:57:25.588Z,90.82
2023-02-11T03:02:34.804Z,89.75
2023-02-11T03:07:56.781Z,88.65
2023-02-11T03:12:59.531Z,89.56
2023-02-11T03:18:03.720Z,88.66
2023-02-11T03:23:11.073Z,89.38
2023-02-11T03:28:36.806Z,88.43
2023-02-11T03:33:52.171Z,88.81
2023-02-11T03:38:56.979Z,88.26
2023-02-11T03:44:00.566Z,88.38
2023-02-11T03:49:08.568Z,88.32
2023-02-11T03:54:17.551Z,88.67
2023-02-11T03:59:19.180Z,89.25
2023-02-11T04:04:20.619Z,89.03
2023-02-11T04:09:22.047Z,88.36
2023-02-11T04:14:23.446Z,88.87
2023-02-11T04:19:24.837Z,88.31
2023-02-11T04:24:26.250Z,88.82
2023-02-11T04:29:28.253Z,87.86
2023-02-11T04:34:29.655Z,88.45
2023-02-11T04:39:31.138Z,88.09
2023-02-11T04:44:32.705Z,88.51
2023-02-11T04:49:34.206Z,87.72
2023-02-11T04:54:35.673Z,88.08
2023-02-11T04:59:37.293Z,87.98
2023-02-11T05:04:38.718Z,86.90
2023-02-11T05:09:40.324Z,88.06
2023-02-11T05:14:41.863Z,88.78
2023-02-11T05:19:43.269Z,88.33
2023-02-11T05:24:44.655Z,88.69
2023-02-11T05:29:46.143Z,88.81
2023-02-11T05:34:47.545Z,89.38
2023-02-11T05:39:49.084Z,89.32
2023-02-11T05:44:50.809Z,89.38
2023-02-11T05:49:53.511Z,90.64
2023-02-11T05:54:54.920Z,90.37
2023-02-11T05:59:56.474Z,90.59
2023-02-11T06:04:57.874Z,90.83
2023-02-11T06:09:59.519Z,90.15
2023-02-11T06:15:00.948Z,90.66
2023-02-11T06:20:04.301Z,90.47
2023-02-11T06:25:06.170Z,91.01
2023-02-11T06:30:08.469Z,90.73
2023-02-11T06:35:11.914Z,90.28
2023-02-11T06:40:13.834Z,90.78
2023-02-11T06:45:15.285Z,89.77
2023-02-11T06:50:16.699Z,90.17
2023-02-11T06:55:18.247Z,89.90
2023-02-11T07:00:20.639Z,90.10
2023-02-11T07:05:22.032Z,90.65
2023-02-11T07:10:23.431Z,90.68
2023-02-11T07:15:24.862Z,90.74
2023-02-11T07:20:26.423Z,91.11
2023-02-11T07:25:27.883Z,91.00
2023-02-11T07:30:29.565Z,91.79
2023-02-11T07:35:31.382Z,92.25
2023-02-11T07:40:32.868Z,91.43
2023-02-11T07:45:34.263Z,91.59
2023-02-11T07:50:35.822Z,92.41
2023-02-11T07:55:37.264Z,92.27
2023-02-11T08:00:38.748Z,92.25
2023-02-11T08:05:40.180Z,92.40
2023-02-11T08:10:41.654Z,92.31
2023-02-11T08:15:43.067Z,92.72
2023-02-11T08:20:44.928Z,92.33
2023-02-11T08:25:46.436Z,92.43
2023-02-11T08:30:47.872Z,92.36
2023-02-11T08:35:49.337Z,91.82
2023-02-11T08:40:50.990Z,91.78
2023-02-11T08:45:52.917Z,92.81
2023-02-11T08:50:55.668Z,91.94
2023-02-11T08:55:58.161Z,91.83
2023-02-11T09:00:59.668Z,91.93
2023-02-11T09:06:06.937Z,91.14
2023-02-11T09:11:09.981Z,91.84
2023-02-11T09:16:16.581Z,91.99
2023-02-11T09:21:19.409Z,91.88
2023-02-11T09:26:32.578Z,91.49
2023-02-11T09:31:34.413Z,91.89
2023-02-11T09:36:38.752Z,91.79
2023-02-11T09:42:16.682Z,91.96
2023-02-11T09:47:34.553Z,91.64
2023-02-11T09:52:51.674Z,91.96
2023-02-11T09:57:53.609Z,91.16
2023-02-11T10:03:26.180Z,90.96
2023-02-11T10:08:57.302Z,91.73
2023-02-11T10:14:23.791Z,91.16
2023-02-11T10:19:43.676Z,90.92
2023-02-11T10:25:02.781Z,91.13
2023-02-11T10:30:16.541Z,91.05
2023-02-11T10:35:21.623Z,90.70
2023-02-11T10:40:28.452Z,90.82
2023-02-11T10:45:42.858Z,90.77
2023-02-11T10:50:44.284Z,90.52
2023-02-11T10:55:54.611Z,89.48
2023-02-11T11:00:59.046Z,90.00
2023-02-11T11:06:09.419Z,89.94
2023-02-11T11:11:14.059Z,89.40
2023-02-11T11:16:19.185Z,89.19
2023-02-11T11:21:25.787Z,89.00
2023-02-11T11:26:38.714Z,89.02
2023-02-11T11:31:52.469Z,88.67
2023-02-11T11:36:56.054Z,89.47
2023-02-11T11:42:00.280Z,89.48
2023-02-11T11:47:09.010Z,88.87
2023-02-11T11:52:28.749Z,88.84
2023-02-11T11:57:33.199Z,88.50
2023-02-11T12:03:07.042Z,88.84
2023-02-11T12:08:36.092Z,88.46
2023-02-11T12:13:46.585Z,88.67
2023-02-11T12:19:24.657Z,88.74
2023-02-11T12:24:42.258Z,88.20
2023-02-11T12:30:28.299Z,89.21
2023-02-11T12:35:55.675Z,88.85
2023-02-11T12:41:53.307Z,89.07
2023-02-11T12:47:33.450Z,89.62
2023-02-11T12:52:49.885Z,89.75
2023-02-11T12:57:56.014Z,89.54
2023-02-11T13:03:11.821Z,89.66
2023-02-11T13:08:22.611Z,89.76
2023-02-11T13:13:35.667Z,89.65
2023-02-11T13:18:43.966Z,90.06
2023-02-11T13:24:05.482Z,89.72
2023-02-11T13:29:31.455Z,90.08
2023-02-11T13:34:41.792Z,90.38
2023-02-11T13:39:43.222Z,90.24
2023-02-11T13:44:44.806Z,91.10
2023-02-11T13:49:53.308Z,90.28
2023-02-11T13:54:57.194Z,90.76
2023-02-11T14:00:24.342Z,90.71
2023-02-11T14:05:50.059Z,90.72
2023-02-11T14:10:55.798Z,90.80
2023-02-11T14:16:15.844Z,90.39
2023-02-11T14:21:27.790Z,90.52
2023-02-11T14:26:43.818Z,90.63
2023-02-11T14:31:57.399Z,90.44
2023-02-11T14:37:09.660Z,90.17
2023-02-11T14:42:19.812Z,90.30
2023-02-11T14:47:29.312Z,90.24
2023-02-11T14:52:34.359Z,90.26
2023-02-11T14:57:37.747Z,90.58
2023-02-11T15:02:39.309Z,90.64
2023-02-11T15:07:46.956Z,90.15
2023-02-11T15:12:49.403Z,90.25
2023-02-11T15:17:50.930Z,90.24
2023-02-11T15:22:57.616Z,90.05
2023-02-11T15:27:59.104Z,89.99
2023-02-11T15:33:03.256Z,90.66
2023-02-11T15:38:05.780Z,90.20
2023-02-11T15:43:09.900Z,90.28
2023-02-11T15:48:20.084Z,89.86
2023-02-11T15:53:31.092Z,90.35
2023-02-11T15:58:40.278Z,90.38
2023-02-11T16:03:42.781Z,90.93
2023-02-11T16:08:57.428Z,90.30
2023-02-11T16:14:00.405Z,90.99
2023-02-11T16:19:05.221Z,90.97
2023-02-11T16:24:17.289Z,91.01
2023-02-11T16:29:30.592Z,91.64
2023-02-11T16:34:32.108Z,92.10
2023-02-11T16:39:33.789Z,92.47
2023-02-11T16:44:35.761Z,92.51
2023-02-11T16:49:40.456Z,92.89
2023-02-11T16:54:42.393Z,92.79
2023-02-11T16:59:44.794Z,93.15
2023-02-11T17:04:46.671Z,93.15
2023-02-11T17:09:48.226Z,93.33
2023-02-11T17:14:49.713Z,93.52
2023-02-11T17:19:51.211Z,94.05
2023-02-11T17:24:52.787Z,94.16
2023-02-11T17:29:54.334Z,94.76
2023-02-11T17:34:55.746Z,94.76
2023-02-11T17:39:57.180Z,94.86
2023-02-11T17:44:58.601Z,94.87
2023-02-11T17:50:00.228Z,94.97
2023-02-11T17:55:01.730Z,95.04
2023-02-11T18:00:05.649Z,95.29
2023-02-11T18:05:14.601Z,95.00
2023-02-11T18:10:16.013Z,95.75
2023-02-11T18:15:17.458Z,95.81
2023-02-11T18:20:18.959Z,95.85
2023-02-11T18:25:20.445Z,95.45
2023-02-11T18:30:22.678Z,95.64
2023-02-11T18:35:24.237Z,95.98
2023-02-11T18:40:25.632Z,96.33
2023-02-11T18:45:29.024Z,96.19
2023-02-11T18:50:30.636Z,96.26
2023-02-11T18:55:32.193Z,96.57
2023-02-11T19:00:34.563Z,96.73
2023-02-11T19:05:47.912Z,96.28
2023-02-11T19:10:49.880Z,96.55
2023-02-11T19:15:51.592Z,96.22
2023-02-11T19:20:53.214Z,96.65
2023-02-11T19:25:54.622Z,96.47
2023-02-11T19:30:56.116Z,96.36
2023-02-11T19:36:03.351Z,97.08
2023-02-11T19:41:05.009Z,97.03
2023-02-11T19:46:06.635Z,96.94
2023-02-11T19:51:12.068Z,96.85
2023-02-11T19:56:15.636Z,97.09
2023-02-11T20:01:20.081Z,96.85
2023-02-11T20:06:28.021Z,96.81
2023-02-11T20:11:31.506Z,97.04
2023-02-11T20:16:47.679Z,96.81
2023-02-11T20:21:55.460Z,96.77
2023-02-11T20:26:56.946Z,96.77
2023-02-11T20:31:58.636Z,96.42
2023-02-11T20:37:00.481Z,96.51
2023-02-11T20:42:01.907Z,96.59
2023-02-11T20:47:03.445Z,96.65
2023-02-11T20:52:04.979Z,96.36
2023-02-11T20:57:07.086Z,97.32
2023-02-11T21:02:10.141Z,97.37
2023-02-11T21:07:11.654Z,97.56
2023-02-11T21:12:13.259Z,97.41
2023-02-11T21:17:14.687Z,97.45
2023-02-11T21:22:16.118Z,96.85
2023-02-11T21:27:17.579Z,97.52
2023-02-11T21:32:19.004Z,97.45
2023-02-11T21:37:21.199Z,97.51
2023-02-11T21:42:22.674Z,97.76
2023-02-11T21:47:24.216Z,97.31
2023-02-11T21:52:25.687Z,97.46
2023-02-11T21:57:27.193Z,97.45
2023-02-11T22:02:28.611Z,97.91
2023-02-11T22:07:30.070Z,97.63
2023-02-11T22:12:31.561Z,97.79
2023-02-11T22:17:33.929Z,97.77
2023-02-11T22:22:35.619Z,98.36
2023-02-11T22:27:37.023Z,97.75
2023-02-11T22:32:38.448Z,97.98
2023-02-11T22:37:39.911Z,98.27
2023-02-11T22:42:41.326Z,98.08
2023-02-11T22:47:42.728Z,98.23
2023-02-11T22:52:44.146Z,98.15
2023-02-11T22:57:45.541Z,98.16
2023-02-11T23:02:47.240Z,98.47
2023-02-11T23:07:48.665Z,98.81
2023-02-11T23:12:50.143Z,98.59
2023-02-11T23:17:51.550Z,98.14
2023-02-11T23:22:52.978Z,98.36
2023-02-11T23:27:54.478Z,98.36
2023-02-11T23:32:55.873Z,98.83
2023-02-11T23:37:57.331Z,98.03
2023-02-11T23:42:58.752Z,98.30
2023-02-11T23:48:00.345Z,98.03
2023-02-11T23:53:01.823Z,98.20
2023-02-11T23:58:03.221Z,98.15
